Time,TemperatureF,DewpointF,PressureIn,WindDirection,WindDirectionDegrees,WindSpeedMPH,WindSpeedGustMPH,Humidity,HourlyPrecipIn,Conditions,Clouds,dailyrainin,SolarRadiationWatts/m^2,SoftwareType,DateUTC
2013-03-03 00:02:00,22.0,14.0,-100.00,North,7,12.0,28.0,72,0.00,,,0.01,0.000000,,2013-03-03 05:02:00,
2013-03-03 00:32:00,22.0,13.0,-100.00,North,7,12.0,29.0,68,0.00,,,0.01,0.000000,,2013-03-03 05:32:00,
2013-03-03 00:42:00,22.0,13.0,-100.00,North,7,12.0,29.0,68,0.00,,,0.01,0.000000,,2013-03-03 05:42:00,
2013-03-03 00:52:00,22.0,13.0,-100.00,North,7,12.0,29.0,68,0.00,,,0.01,0.000000,,2013-03-03 05:52:00,
2013-03-03 01:02:00,22.0,13.0,-100.00,North,7,12.0,29.0,68,0.00,,,0.01,0.000000,,2013-03-03 06:02:00,
2013-03-03 01:32:00,21.0,12.0,-100.00,North,6,11.0,31.0,68,0.00,,,0.01,0.000000,,2013-03-03 06:32:00,
2013-03-03 01:42:00,21.0,12.0,-100.00,North,6,11.0,31.0,68,0.00,,,0.01,0.000000,,2013-03-03 06:42:00,
2013-03-03 01:52:00,21.0,12.0,-100.00,North,6,11.0,31.0,68,0.00,,,0.01,0.000000,,2013-03-03 06:52:00,
2013-03-03 02:01:00,21.0,12.0,-100.00,North,6,11.0,31.0,68,0.00,,,0.01,0.000000,,2013-03-03 07:01:00,
2013-03-03 02:32:00,21.0,13.0,-100.00,North,5,12.0,30.0,70,0.00,,,0.01,0.000000,,2013-03-03 07:32:00,
2013-03-03 02:42:00,21.0,13.0,-100.00,North,5,12.0,30.0,70,0.00,,,0.01,0.000000,,2013-03-03 07:42:00,
2013-03-03 02:52:00,21.0,13.0,-100.00,North,5,12.0,30.0,70,0.00,,,0.01,0.000000,,2013-03-03 07:52:00,
2013-03-03 03:01:00,21.0,13.0,-100.00,North,5,12.0,30.0,70,0.00,,,0.01,0.000000,,2013-03-03 08:01:00,
2013-03-03 03:32:00,20.0,12.0,-100.00,North,4,10.0,28.0,70,0.00,,,0.01,0.000000,,2013-03-03 08:32:00,
2013-03-03 03:42:00,20.0,12.0,-100.00,North,4,10.0,28.0,70,0.00,,,0.01,0.000000,,2013-03-03 08:42:00,
2013-03-03 03:54:00,20.0,12.0,-100.00,North,4,10.0,28.0,70,0.00,,,0.01,0.000000,,2013-03-03 08:54:00,
2013-03-03 04:02:00,20.0,12.0,-100.00,North,4,10.0,28.0,70,0.00,,,0.01,0.000000,,2013-03-03 09:02:00,
2013-03-03 04:32:00,19.0,11.0,-100.00,North,4,11.0,27.0,70,0.00,,,0.01,0.000000,,2013-03-03 09:32:00,
2013-03-03 04:42:00,19.0,11.0,-100.00,North,4,11.0,27.0,70,0.00,,,0.01,0.000000,,2013-03-03 09:42:00,
2013-03-03 04:52:00,19.0,11.0,-100.00,North,4,11.0,27.0,70,0.00,,,0.01,0.000000,,2013-03-03 09:52:00,
2013-03-03 05:01:00,19.0,11.0,-100.00,North,4,11.0,27.0,70,0.00,,,0.01,0.000000,,2013-03-03 10:01:00,
2013-03-03 05:32:00,19.0,11.0,-100.00,North,5,11.0,26.0,70,0.00,,,0.01,0.000000,,2013-03-03 10:32:00,
2013-03-03 05:42:00,19.0,11.0,-100.00,North,5,11.0,26.0,70,0.00,,,0.01,0.000000,,2013-03-03 10:42:00,
2013-03-03 05:52:00,19.0,11.0,-100.00,North,5,11.0,26.0,70,0.00,,,0.01,0.000000,,2013-03-03 10:52:00,
2013-03-03 06:01:00,19.0,11.0,-100.00,North,5,11.0,26.0,70,0.00,,,0.01,0.000000,,2013-03-03 11:01:00,
2013-03-03 06:32:00,19.0,10.0,-100.00,North,4,11.0,31.0,67,0.00,,,0.01,0.000000,,2013-03-03 11:32:00,
2013-03-03 06:42:00,19.0,10.0,-100.00,North,4,11.0,31.0,67,0.00,,,0.01,0.000000,,2013-03-03 11:42:00,
2013-03-03 06:53:00,19.0,10.0,-100.00,North,4,11.0,31.0,67,0.00,,,0.01,0.000000,,2013-03-03 11:53:00,
2013-03-03 07:02:00,19.0,10.0,-100.00,North,4,11.0,31.0,67,0.00,,,0.01,0.000000,,2013-03-03 12:02:00,
2013-03-03 07:32:00,18.0,10.0,-100.00,North,3,9.0,24.0,70,0.00,,,0.01,2.000000,,2013-03-03 12:32:00,
2013-03-03 07:43:00,18.0,10.0,-100.00,North,3,9.0,24.0,70,0.00,,,0.01,2.000000,,2013-03-03 12:43:00,
2013-03-03 07:53:00,18.0,10.0,-100.00,North,3,9.0,24.0,70,0.00,,,0.01,2.000000,,2013-03-03 12:53:00,
2013-03-03 08:02:00,18.0,10.0,-100.00,North,3,9.0,24.0,70,0.00,,,0.01,2.000000,,2013-03-03 13:02:00,
2013-03-03 08:32:00,20.0,11.0,-100.00,North,4,9.0,22.0,67,0.00,,,0.01,70.000000,,2013-03-03 13:32:00,
2013-03-03 08:42:00,20.0,11.0,-100.00,North,4,9.0,22.0,67,0.00,,,0.01,70.000000,,2013-03-03 13:42:00,
2013-03-03 08:52:00,20.0,11.0,-100.00,North,4,9.0,22.0,67,0.00,,,0.01,70.000000,,2013-03-03 13:52:00,
2013-03-03 09:02:00,20.0,11.0,-100.00,North,4,9.0,22.0,67,0.00,,,0.01,70.000000,,2013-03-03 14:02:00,
2013-03-03 09:32:00,22.0,9.0,-100.00,North,3,10.0,25.0,57,0.00,,,0.01,234.000000,,2013-03-03 14:32:00,
2013-03-03 09:42:00,22.0,9.0,-100.00,North,3,10.0,25.0,57,0.00,,,0.01,234.000000,,2013-03-03 14:42:00,
2013-03-03 09:52:00,22.0,9.0,-100.00,North,3,10.0,25.0,57,0.00,,,0.01,234.000000,,2013-03-03 14:52:00,
2013-03-03 10:02:00,22.0,9.0,-100.00,North,3,10.0,25.0,57,0.00,,,0.01,234.000000,,2013-03-03 15:02:00,
2013-03-03 10:32:00,23.0,8.0,-100.00,North,4,10.0,24.0,53,0.00,,,0.00,510.000000,,2013-03-03 15:32:00,
2013-03-03 10:42:00,23.0,8.0,-100.00,North,4,10.0,24.0,53,0.00,,,0.00,510.000000,,2013-03-03 15:42:00,
2013-03-03 10:52:00,23.0,8.0,-100.00,North,4,10.0,24.0,53,0.00,,,0.00,510.000000,,2013-03-03 15:52:00,
2013-03-03 11:02:00,23.0,8.0,-100.00,North,4,10.0,24.0,53,0.00,,,0.00,510.000000,,2013-03-03 16:02:00,
2013-03-03 11:32:00,25.0,9.0,-100.00,North,7,10.0,23.0,50,0.00,,,0.00,691.000000,,2013-03-03 16:32:00,
2013-03-03 11:42:00,25.0,9.0,-100.00,North,7,10.0,23.0,50,0.00,,,0.00,691.000000,,2013-03-03 16:42:00,
2013-03-03 11:52:00,25.0,9.0,-100.00,North,7,10.0,23.0,50,0.00,,,0.00,691.000000,,2013-03-03 16:52:00,
2013-03-03 12:01:00,25.0,9.0,-100.00,North,7,10.0,23.0,50,0.00,,,0.00,691.000000,,2013-03-03 17:01:00,
2013-03-03 12:32:00,28.0,10.0,-100.00,NNE,13,7.0,18.0,46,0.00,,,0.00,732.000000,,2013-03-03 17:32:00,
2013-03-03 12:42:00,28.0,10.0,-100.00,NNE,13,7.0,18.0,46,0.00,,,0.00,732.000000,,2013-03-03 17:42:00,
2013-03-03 12:52:00,28.0,10.0,-100.00,NNE,13,7.0,18.0,46,0.00,,,0.00,732.000000,,2013-03-03 17:52:00,
2013-03-03 13:02:00,28.0,10.0,-100.00,NNE,13,7.0,18.0,46,0.00,,,0.00,732.000000,,2013-03-03 18:02:00,
2013-03-03 13:22:00,29.0,11.0,-100.00,NE,48,8.0,17.0,46,0.00,,,0.00,807.000000,,2013-03-03 18:22:00,
2013-03-03 13:32:00,29.0,11.0,-100.00,NE,48,8.0,17.0,46,0.00,,,0.00,807.000000,,2013-03-03 18:32:00,
2013-03-03 13:42:00,29.0,11.0,-100.00,NE,48,8.0,17.0,46,0.00,,,0.00,807.000000,,2013-03-03 18:42:00,
2013-03-03 13:52:00,29.0,11.0,-100.00,NE,48,8.0,17.0,46,0.00,,,0.00,807.000000,,2013-03-03 18:52:00,
2013-03-03 14:02:00,29.0,11.0,-100.00,NE,48,8.0,17.0,46,0.00,,,0.00,807.000000,,2013-03-03 19:02:00,
2013-03-03 14:22:00,32.0,13.0,-100.00,NNW,342,8.0,17.0,45,0.00,,,0.00,805.000000,,2013-03-03 19:22:00,
2013-03-03 14:32:00,32.0,13.0,-100.00,NNW,342,8.0,17.0,45,0.00,,,0.00,805.000000,,2013-03-03 19:32:00,
2013-03-03 14:42:00,32.0,13.0,-100.00,NNW,342,8.0,17.0,45,0.00,,,0.00,805.000000,,2013-03-03 19:42:00,
2013-03-03 14:52:00,32.0,13.0,-100.00,NNW,342,8.0,17.0,45,0.00,,,0.00,805.000000,,2013-03-03 19:52:00,
2013-03-03 15:01:00,32.0,13.0,-100.00,NNW,342,8.0,17.0,45,0.00,,,0.00,805.000000,,2013-03-03 20:01:00,
2013-03-03 15:32:00,33.0,14.0,-100.00,North,359,7.0,16.0,45,0.00,,,0.00,748.000000,,2013-03-03 20:32:00,
2013-03-03 15:43:00,33.0,14.0,-100.00,North,359,7.0,16.0,45,0.00,,,0.00,748.000000,,2013-03-03 20:43:00,
2013-03-03 15:53:00,33.0,14.0,-100.00,North,359,7.0,16.0,45,0.00,,,0.00,748.000000,,2013-03-03 20:53:00,
2013-03-03 16:02:00,33.0,14.0,-100.00,North,359,7.0,16.0,45,0.00,,,0.00,748.000000,,2013-03-03 21:02:00,
2013-03-03 16:32:00,31.0,13.0,-100.00,North,355,8.0,16.0,47,0.00,,,0.00,541.000000,,2013-03-03 21:32:00,
2013-03-03 16:42:00,31.0,13.0,-100.00,North,355,8.0,16.0,47,0.00,,,0.00,541.000000,,2013-03-03 21:42:00,
2013-03-03 16:52:00,31.0,13.0,-100.00,North,355,8.0,16.0,47,0.00,,,0.00,541.000000,,2013-03-03 21:52:00,
2013-03-03 17:02:00,31.0,13.0,-100.00,North,355,8.0,16.0,47,0.00,,,0.00,541.000000,,2013-03-03 22:02:00,
2013-03-03 17:32:00,28.0,12.0,-100.00,NW,308,6.0,15.0,51,0.00,,,0.00,109.000000,,2013-03-03 22:32:00,
2013-03-03 17:42:00,28.0,12.0,-100.00,NW,308,6.0,15.0,51,0.00,,,0.00,109.000000,,2013-03-03 22:42:00,
2013-03-03 17:52:00,28.0,12.0,-100.00,NW,308,6.0,15.0,51,0.00,,,0.00,109.000000,,2013-03-03 22:52:00,
2013-03-03 18:32:00,25.0,11.0,-100.00,NNE,23,4.0,19.0,55,0.00,,,0.00,26.000000,,2013-03-03 23:32:00,
2013-03-03 18:42:00,25.0,11.0,-100.00,NNE,23,4.0,19.0,55,0.00,,,0.00,26.000000,,2013-03-03 23:42:00,
2013-03-03 18:52:00,25.0,11.0,-100.00,NNE,23,4.0,19.0,55,0.00,,,0.00,26.000000,,2013-03-03 23:52:00,
2013-03-03 19:02:00,25.0,11.0,-100.00,NNE,23,4.0,19.0,55,0.00,,,0.00,26.000000,,2013-03-04 00:02:00,
2013-03-03 19:32:00,22.0,10.0,-100.00,North,10,5.0,17.0,59,0.00,,,0.00,5.000000,,2013-03-04 00:32:00,
2013-03-03 19:42:00,22.0,10.0,-100.00,North,10,5.0,17.0,59,0.00,,,0.00,5.000000,,2013-03-04 00:42:00,
2013-03-03 19:52:00,22.0,10.0,-100.00,North,10,5.0,17.0,59,0.00,,,0.00,5.000000,,2013-03-04 00:52:00,
2013-03-03 20:01:00,22.0,10.0,-100.00,North,10,5.0,17.0,59,0.00,,,0.00,5.000000,,2013-03-04 01:01:00,
2013-03-03 20:32:00,21.0,10.0,-100.00,North,6,7.0,18.0,62,0.00,,,0.00,0.000000,,2013-03-04 01:32:00,
2013-03-03 20:42:00,21.0,10.0,-100.00,North,6,7.0,18.0,62,0.00,,,0.00,0.000000,,2013-03-04 01:42:00,
2013-03-03 20:52:00,21.0,10.0,-100.00,North,6,7.0,18.0,62,0.00,,,0.00,0.000000,,2013-03-04 01:52:00,
2013-03-03 21:01:00,21.0,10.0,-100.00,North,6,7.0,18.0,62,0.00,,,0.00,0.000000,,2013-03-04 02:01:00,
2013-03-03 21:32:00,21.0,11.0,-100.00,North,6,8.0,20.0,65,0.00,,,0.00,0.000000,,2013-03-04 02:32:00,
2013-03-03 21:42:00,21.0,11.0,-100.00,North,6,8.0,20.0,65,0.00,,,0.00,0.000000,,2013-03-04 02:42:00,
2013-03-03 21:53:00,21.0,11.0,-100.00,North,6,8.0,20.0,65,0.00,,,0.00,0.000000,,2013-03-04 02:53:00,
2013-03-03 22:02:00,21.0,11.0,-100.00,North,6,8.0,20.0,65,0.00,,,0.00,0.000000,,2013-03-04 03:02:00,
2013-03-03 22:22:00,20.0,11.0,-100.00,North,5,8.0,20.0,67,0.00,,,0.00,0.000000,,2013-03-04 03:22:00,
2013-03-03 22:32:00,20.0,11.0,-100.00,North,5,8.0,20.0,67,0.00,,,0.00,0.000000,,2013-03-04 03:32:00,
2013-03-03 22:42:00,20.0,11.0,-100.00,North,5,8.0,20.0,67,0.00,,,0.00,0.000000,,2013-03-04 03:42:00,
2013-03-03 22:53:00,20.0,11.0,-100.00,North,5,8.0,20.0,67,0.00,,,0.00,0.000000,,2013-03-04 03:53:00,
2013-03-03 23:01:00,20.0,11.0,-100.00,North,5,8.0,20.0,67,0.00,,,0.00,0.000000,,2013-03-04 04:01:00,
2013-03-03 23:32:00,20.0,10.0,-100.00,North,5,7.0,19.0,65,0.00,,,0.00,0.000000,,2013-03-04 04:32:00,
2013-03-03 23:42:00,20.0,10.0,-100.00,North,5,7.0,19.0,65,0.00,,,0.00,0.000000,,2013-03-04 04:42:00,
2013-03-03 23:52:00,20.0,10.0,-100.00,North,5,7.0,19.0,65,0.00,,,0.00,0.000000,,2013-03-04 04:52:00,